createdAt,value
2023-05-05T00:01:53.625Z,13.45
2023-05-05T00:06:58.942Z,17.00
2023-05-05T00:12:04.579Z,17.80
2023-05-05T00:17:15.900Z,17.40
2023-05-05T00:22:21.121Z,19.35
2023-05-05T00:27:26.367Z,16.95
2023-05-05T00:32:34.063Z,16.85
2023-05-05T00:37:39.230Z,18.00
2023-05-05T00:42:45.887Z,20.85
2023-05-05T00:47:56.946Z,18.42
2023-05-05T00:53:04.601Z,18.23
2023-05-05T01:03:17.550Z,19.05
2023-05-05T01:08:32.730Z,22.73
2023-05-05T01:13:46.415Z,21.80
2023-05-05T01:18:59.830Z,24.63
2023-05-05T01:24:17.005Z,20.40
2023-05-05T01:29:41.649Z,20.52
2023-05-05T01:34:56.200Z,20.00
2023-05-05T01:40:03.314Z,23.33
2023-05-05T01:45:11.195Z,21.90
2023-05-05T01:55:25.323Z,22.60
2023-05-05T02:00:30.951Z,24.25
2023-05-05T02:05:39.645Z,24.13
2023-05-05T02:10:44.927Z,25.17
2023-05-05T02:15:50.778Z,24.33
2023-05-05T02:20:58.707Z,27.10
2023-05-05T02:31:10.925Z,21.92
2023-05-05T02:36:22.484Z,26.50
2023-05-05T02:41:29.578Z,27.85
2023-05-05T02:46:35.010Z,26.63
2023-05-05T02:51:42.780Z,33.05
2023-05-05T02:56:51.325Z,23.55
2023-05-05T03:02:03.014Z,26.38
2023-05-05T03:07:14.577Z,26.33
2023-05-05T03:12:22.848Z,26.48
2023-05-05T03:17:28.634Z,29.85
2023-05-05T03:22:39.415Z,26.05
2023-05-05T03:27:44.672Z,29.80
2023-05-05T03:32:49.886Z,29.20
2023-05-05T03:37:58.048Z,30.98
2023-05-05T03:43:03.356Z,28.08
2023-05-05T03:48:10.005Z,28.30
2023-05-05T03:53:17.950Z,36.85
2023-05-05T04:03:28.123Z,49.08
2023-05-05T04:08:36.476Z,53.33
2023-05-05T04:13:41.829Z,40.85
2023-05-05T04:18:47.933Z,45.67
2023-05-05T04:23:55.651Z,46.28
2023-05-05T04:29:04.130Z,39.90
2023-05-05T04:34:09.285Z,35.83
2023-05-05T04:39:17.100Z,36.00
2023-05-05T04:44:22.295Z,36.83
2023-05-05T04:49:27.488Z,31.90
2023-05-05T04:54:38.660Z,31.25
2023-05-05T04:59:43.930Z,30.50
2023-05-05T05:04:48.986Z,30.98
2023-05-05T05:09:56.816Z,31.23
2023-05-05T05:20:07.668Z,32.33
2023-05-05T05:25:16.028Z,33.58
2023-05-05T05:30:21.310Z,33.15
2023-05-05T05:35:26.940Z,30.52
2023-05-05T05:40:34.810Z,29.15
2023-05-05T05:45:39.939Z,31.00
2023-05-05T05:50:46.179Z,31.25
2023-05-05T05:55:54.805Z,29.05
2023-05-05T06:01:01.028Z,27.98
2023-05-05T06:06:06.498Z,26.08
2023-05-05T06:11:14.648Z,28.98
2023-05-05T06:16:20.258Z,25.65
2023-05-05T06:21:25.414Z,27.10
2023-05-05T06:26:33.284Z,23.50
2023-05-05T06:31:38.498Z,22.85
2023-05-05T06:36:43.688Z,21.95
2023-05-05T06:41:51.949Z,20.83
2023-05-05T06:46:57.530Z,21.35
2023-05-05T06:52:06.134Z,20.65
2023-05-05T06:57:14.144Z,18.05
2023-05-05T07:02:20.105Z,19.02
2023-05-05T07:07:25.913Z,15.65
2023-05-05T07:12:35.291Z,12.85
2023-05-05T07:17:40.881Z,16.73
2023-05-05T07:22:47.125Z,12.60
2023-05-05T07:27:55.365Z,14.93
2023-05-05T07:33:01.433Z,13.13
2023-05-05T07:38:08.661Z,12.25
2023-05-05T07:43:17.775Z,12.80
2023-05-05T07:48:23.491Z,12.80
2023-05-05T07:53:29.493Z,15.52
2023-05-05T07:58:38.116Z,13.63
2023-05-05T08:03:43.844Z,10.15
2023-05-05T08:08:49.855Z,9.30
2023-05-05T08:13:59.071Z,14.30
2023-05-05T08:19:12.060Z,10.75
2023-05-05T08:24:27.195Z,10.85
2023-05-05T08:29:36.047Z,9.82
2023-05-05T08:34:42.068Z,9.02
2023-05-05T08:39:48.185Z,9.48
2023-05-05T08:44:58.934Z,9.07
2023-05-05T08:50:07.097Z,7.72
2023-05-05T08:55:20.873Z,9.00
2023-05-05T09:00:31.266Z,7.72
2023-05-05T09:05:37.215Z,7.95
2023-05-05T09:10:46.227Z,7.68
2023-05-05T09:15:55.294Z,7.90
2023-05-05T09:21:01.432Z,6.72
2023-05-05T09:26:09.884Z,6.75
2023-05-05T09:31:21.947Z,7.00
2023-05-05T09:36:47.498Z,7.20
2023-05-05T09:41:53.352Z,6.10
2023-05-05T09:47:03.776Z,8.70
2023-05-05T09:52:17.091Z,7.75
2023-05-05T09:57:33.290Z,6.85
2023-05-05T10:02:42.943Z,8.02
2023-05-05T10:07:50.344Z,7.03
2023-05-05T10:12:59.574Z,11.38
2023-05-05T10:18:08.903Z,7.43
2023-05-05T10:23:18.690Z,5.90
2023-05-05T10:28:31.683Z,6.05
2023-05-05T10:33:53.414Z,7.80
2023-05-05T10:39:03.961Z,7.85
2023-05-05T10:44:11.678Z,8.95
2023-05-05T10:49:29.211Z,9.00
2023-05-05T10:54:41.032Z,6.88
2023-05-05T10:59:48.527Z,5.82
2023-05-05T11:05:19.064Z,9.38
2023-05-05T11:10:25.235Z,6.50
2023-05-05T11:15:41.680Z,6.50
2023-05-05T11:21:16.712Z,7.85
2023-05-05T11:26:46.913Z,4.53
2023-05-05T11:32:16.762Z,6.85
2023-05-05T11:37:27.411Z,4.75
2023-05-05T11:42:33.356Z,7.60
2023-05-05T11:47:39.322Z,5.10
2023-05-05T11:52:48.092Z,6.38
2023-05-05T11:57:54.278Z,6.20
2023-05-05T12:03:02.006Z,4.30
2023-05-05T12:08:11.394Z,3.88
2023-05-05T12:13:25.344Z,6.80
2023-05-05T12:18:32.079Z,8.15
2023-05-05T12:28:50.039Z,5.50
2023-05-05T12:33:56.320Z,6.45
2023-05-05T12:39:06.018Z,6.80
2023-05-05T12:44:12.008Z,6.22
2023-05-05T12:49:18.165Z,6.75
2023-05-05T12:54:31.218Z,5.30
2023-05-05T12:59:37.365Z,6.05
2023-05-05T13:04:52.433Z,8.65
2023-05-05T13:10:12.266Z,5.47
2023-05-05T13:15:19.228Z,5.60
2023-05-05T13:20:25.136Z,5.32
2023-05-05T13:25:33.737Z,6.75
2023-05-05T13:30:39.702Z,6.68
2023-05-05T13:35:47.447Z,5.32
2023-05-05T13:40:56.133Z,5.38
2023-05-05T13:46:16.049Z,6.78
2023-05-05T13:51:25.791Z,10.07
2023-05-05T13:56:34.712Z,9.07
2023-05-05T14:01:41.462Z,5.72
2023-05-05T14:12:00.099Z,4.80
2023-05-05T14:17:07.003Z,10.10
2023-05-05T14:22:12.916Z,5.72
2023-05-05T14:27:21.370Z,6.57
2023-05-05T14:32:27.302Z,9.63
2023-05-05T14:37:36.138Z,4.95
2023-05-05T14:42:44.702Z,4.68
2023-05-05T14:47:50.679Z,4.72
2023-05-05T14:52:56.514Z,4.72
2023-05-05T14:58:06.309Z,4.30
2023-05-05T15:03:12.281Z,6.25
2023-05-05T15:08:19.814Z,5.03
2023-05-05T15:13:31.118Z,4.20
2023-05-05T15:18:37.070Z,3.97
2023-05-05T15:23:42.918Z,4.15
2023-05-05T15:28:51.559Z,4.68
2023-05-05T15:33:57.466Z,7.53
2023-05-05T15:39:03.811Z,5.63
2023-05-05T15:44:12.810Z,5.47
2023-05-05T15:49:18.885Z,4.13
2023-05-05T15:54:24.796Z,4.30
2023-05-05T15:59:33.275Z,4.22
2023-05-05T16:04:39.401Z,6.13
2023-05-05T16:09:46.175Z,5.05
2023-05-05T16:14:55.520Z,5.95
2023-05-05T16:20:01.815Z,5.05
2023-05-05T16:25:08.519Z,6.38
2023-05-05T16:30:18.803Z,6.78
2023-05-05T16:35:25.433Z,8.70
2023-05-05T16:45:40.850Z,8.80
2023-05-05T16:50:46.769Z,3.95
2023-05-05T16:55:54.240Z,5.32
2023-05-05T17:01:04.552Z,6.43
2023-05-05T17:06:11.097Z,5.72
2023-05-05T17:11:18.114Z,9.20
2023-05-05T17:16:27.516Z,7.47
2023-05-05T17:21:33.988Z,4.07
2023-05-05T17:26:40.124Z,5.40
2023-05-05T17:31:48.725Z,6.65
2023-05-05T17:36:54.610Z,7.32
2023-05-05T17:42:02.105Z,4.90
2023-05-05T17:47:11.671Z,6.40
2023-05-05T17:52:17.618Z,6.05
2023-05-05T17:57:24.682Z,7.15
2023-05-05T18:02:40.695Z,6.95
2023-05-05T18:07:51.104Z,6.85
2023-05-05T18:13:07.193Z,5.85
2023-05-05T18:18:21.539Z,6.45
2023-05-05T18:23:37.521Z,8.27
2023-05-05T18:28:59.455Z,12.55
2023-05-05T18:34:08.471Z,9.82
2023-05-05T18:39:14.956Z,10.68
2023-05-05T18:44:21.361Z,8.38
2023-05-05T18:49:31.480Z,7.68
2023-05-05T18:54:38.848Z,10.68
2023-05-05T18:59:46.601Z,8.40
2023-05-05T19:04:55.980Z,7.95
2023-05-05T19:10:03.569Z,11.45
2023-05-05T19:15:11.022Z,9.40
2023-05-05T19:20:20.128Z,13.50
2023-05-05T19:25:27.126Z,9.75
2023-05-05T19:35:45.707Z,8.45
2023-05-05T19:40:52.385Z,11.15
2023-05-05T19:45:58.769Z,8.85
2023-05-05T19:51:25.825Z,10.95
2023-05-05T19:56:36.746Z,8.48
2023-05-05T20:01:45.044Z,7.75
2023-05-05T20:06:55.995Z,10.50
2023-05-05T20:12:23.446Z,11.65
2023-05-05T20:17:37.253Z,8.02
2023-05-05T20:22:48.167Z,10.52
2023-05-05T20:27:55.142Z,10.65
2023-05-05T20:33:03.922Z,10.82
2023-05-05T20:38:13.847Z,8.15
2023-05-05T20:43:26.953Z,9.27
2023-05-05T20:48:36.943Z,11.35
2023-05-05T20:53:50.127Z,8.88
2023-05-05T20:58:57.836Z,8.82
2023-05-05T21:04:06.957Z,9.98
2023-05-05T21:09:26.132Z,9.38
2023-05-05T21:14:38.803Z,11.20
2023-05-05T21:19:56.140Z,9.98
2023-05-05T21:25:23.325Z,10.02
2023-05-05T21:35:35.174Z,8.43
2023-05-05T21:40:43.807Z,11.82
2023-05-05T21:45:49.876Z,10.48
2023-05-05T21:50:55.684Z,13.40
2023-05-05T21:56:04.439Z,10.63
2023-05-05T22:01:12.278Z,11.70
2023-05-05T22:06:21.406Z,15.57
2023-05-05T22:11:33.877Z,10.50
2023-05-05T22:16:39.582Z,9.93
2023-05-05T22:21:50.900Z,12.98
2023-05-05T22:26:59.271Z,9.88
2023-05-05T22:32:11.109Z,10.93
2023-05-05T22:37:17.525Z,11.15
2023-05-05T22:42:35.024Z,11.18
2023-05-05T22:47:40.324Z,15.25
2023-05-05T22:52:46.788Z,12.63
2023-05-05T22:57:55.231Z,12.02
2023-05-05T23:03:01.736Z,12.35
2023-05-05T23:08:08.749Z,11.90
2023-05-05T23:13:16.783Z,11.75
2023-05-05T23:18:21.971Z,11.60
2023-05-05T23:23:27.438Z,12.07
2023-05-05T23:28:35.136Z,13.55
2023-05-05T23:33:40.252Z,14.43
2023-05-05T23:38:45.939Z,12.95
2023-05-05T23:43:53.603Z,12.75
2023-05-05T23:49:01.657Z,13.65
2023-05-05T23:54:06.919Z,12.75
2023-05-05T23:59:14.715Z,16.33
